Flight Track Log - Related Links

Times and Time Zones

All times are in EDT time to prevent confusion due to time zone crossing. See the N715CD flight status page for this flight to view local times or setup timezone preferences in your user account.

Time Position Orientation Groundspeed Altitude Reporting Facility
EDT Latitude Longitude Course Direction KTS MPH feet Rate Location/Type
Wed 11:59:17 AM 38.0050 -87.5892 331° Northwest 200 230 2,200  Level Kansas City Center
Wed 12:00:19 PM 38.0406 -87.6047 341° North 148 170 2,700 532 Climbing Kansas City Center
Wed 12:01:21 PM 38.0758 -87.6272 333° Northwest 142 163 3,300 672 Climbing Kansas City Center
Wed 12:02:24 PM 38.1161 -87.6578 329° Northwest 141 162 4,100 677 Climbing Indianapolis Center
Wed 12:03:00 PM 38.2640 -87.6942 331° Northwest  Level Estimated
Wed 12:03:25 PM 38.1489 -87.6814 330° Northwest 138 159 4,700  Level Indianapolis Center
Wed 12:04:00 PM 38.3017 -87.7214 331° Northwest  Level FlightAware Approximate
Wed 12:04:27 PM 38.1819 -87.7036 332° Northwest 135 155 5,400  Level Indianapolis Center
Wed 12:05:28 PM 38.2153 -87.7250 333° Northwest 134 154 5,900 293 Climbing Indianapolis Center
Wed 12:06:30 PM 38.2517 -87.7506 331° Northwest 141 162 6,000 48 Climbing Indianapolis Center
Wed 12:07:32 PM 38.2922 -87.7781 332° Northwest 155 178 6,000  Level Indianapolis Center
Wed 12:08:33 PM 38.3322 -87.8061 331° Northwest 162 186 6,000  Level Indianapolis Center
Wed 12:09:35 PM 38.3717 -87.8325 332° Northwest 161 185 6,000  Level Indianapolis Center
Wed 12:10:37 PM 38.4103 -87.8603 331° Northwest 159 183 6,000  Level Indianapolis Center
Wed 12:11:38 PM 38.4550 -87.8906 332° Northwest 155 178 6,000  Level Indianapolis Center
Wed 12:12:40 PM 38.4928 -87.9167 332° Northwest 153 176 6,000  Level Indianapolis Center
Wed 12:13:41 PM 38.5303 -87.9422 332° Northwest 153 176 6,000  Level Indianapolis Center
Wed 12:14:43 PM 38.5686 -87.9681 332° Northwest 153 176 6,000  Level Indianapolis Center
Wed 12:15:45 PM 38.6058 -87.9931 332° Northwest 152 175 6,000  Level Indianapolis Center
Wed 12:16:46 PM 38.6419 -88.0192 331° Northwest 151 174 6,000  Level Indianapolis Center
Wed 12:17:48 PM 38.6803 -88.0447 333° Northwest 152 175 6,000  Level Indianapolis Center
Wed 12:18:50 PM 38.7181 -88.0722 330° Northwest 154 177 6,000  Level Indianapolis Center
Wed 12:19:51 PM 38.7561 -88.0992 331° Northwest 155 178 6,000  Level Indianapolis Center
Wed 12:20:53 PM 38.8006 -88.1294 332° Northwest 152 175 6,000  Level Indianapolis Center
Wed 12:22:02 PM 38.8389 -88.1569 331° Northwest 154 177 6,000  Level Kansas City Center
Wed 12:23:04 PM 38.8775 -88.1814 334° Northwest 154 177 6,000  Level Kansas City Center
Wed 12:24:06 PM 38.9219 -88.2147 330° Northwest 154 177 6,000  Level Kansas City Center
Wed 12:25:08 PM 38.9589 -88.2406 331° Northwest 152 175 6,000  Level Kansas City Center
Wed 12:26:10 PM 38.9967 -88.2667 332° Northwest 153 176 6,000  Level Kansas City Center
Wed 12:27:12 PM 39.0322 -88.2922 331° Northwest 149 171 6,000  Level Kansas City Center
Wed 12:28:14 PM 39.0697 -88.3186 331° Northwest 150 173 6,000  Level Kansas City Center
Wed 12:29:16 PM 39.1053 -88.3450 330° Northwest 150 173 6,000  Level Kansas City Center
Wed 12:30:18 PM 39.1417 -88.3706 331° Northwest 149 171 6,000  Level Kansas City Center
Wed 12:31:20 PM 39.1872 -88.4006 333° Northwest 151 174 6,000  Level Kansas City Center
Wed 12:32:22 PM 39.2239 -88.4275 330° Northwest 151 174 6,000  Level Kansas City Center
Wed 12:33:24 PM 39.2603 -88.4542 330° Northwest 151 174 6,000  Level Kansas City Center
Wed 12:34:26 PM 39.2964 -88.4800 331° Northwest 150 173 6,000  Level Kansas City Center
Wed 12:35:28 PM 39.3333 -88.5047 333° Northwest 149 171 6,000  Level Kansas City Center
Wed 12:36:30 PM 39.3694 -88.5308 331° Northwest 148 170 6,000  Level Kansas City Center
Wed 12:37:32 PM 39.4069 -88.5569 332° Northwest 149 171 6,000  Level Kansas City Center
Wed 12:38:34 PM 39.4436 -88.5828 331° Northwest 148 170 6,000  Level Kansas City Center
Wed 12:39:36 PM 39.4800 -88.6111 329° Northwest 152 175 6,000 -242 Level Kansas City Center
Wed 12:40:38 PM 39.5242 -88.6431 331° Northwest 152 175 5,500 -581 Descending Kansas City Center
Wed 12:41:40 PM 39.5650 -88.6722 331° Northwest 161 185 4,800 -629 Descending Kansas City Center
Wed 12:42:42 PM 39.6061 -88.7008 332° Northwest 165 190 4,200 -339 Descending Kansas City Center
Wed 12:43:44 PM 39.6436 -88.7292 330° Northwest 165 190 4,100 -242 Descending Kansas City Center
Wed 12:44:46 PM 39.6822 -88.7544 333° Northwest 164 189 3,700 919 Descending Kansas City Center
Wed 12:45:48 PM 39.7247 -88.7750 340° North 162 186 6,000 2,226 Climbing Kansas City Center
Wed 12:47:00 PM 39.8333 -88.8500 346° North  Level FlightAware Approximate
Wed 12:54:00 PM 39.8346 -88.8657 346° North  Level Estimated
Wed 12:55:00 PM 39.8346 -88.8657 346° North  Level Estimated
Wed 12:56:00 PM 39.8346 -88.8657 346° North  Level Estimated
Wed 12:57:00 PM 39.8346 -88.8657 346° North  Level Estimated

Login

Don't have an account? Register now (free) for customized features, flight alerts, and more!